createdAt,value
2022-10-13T00:00:55.520Z,97507.66
2022-10-13T00:04:58.295Z,97507.34
2022-10-13T00:08:59.263Z,97508.44
2022-10-13T00:12:59.398Z,97502.00
2022-10-13T00:16:59.538Z,97521.63
2022-10-13T00:21:02.495Z,97522.06
2022-10-13T00:25:02.756Z,97514.34
2022-10-13T00:29:02.868Z,97525.72
2022-10-13T00:33:03.023Z,97528.44
2022-10-13T00:37:05.973Z,97527.22
2022-10-13T00:41:06.724Z,97496.50
2022-10-13T00:45:25.269Z,97528.59
2022-10-13T00:49:25.432Z,97530.38
2022-10-13T00:53:35.706Z,97505.47
2022-10-13T00:57:36.569Z,97529.22
2022-10-13T01:01:38.059Z,97522.63
2022-10-13T01:05:39.091Z,97521.53
2022-10-13T01:09:42.572Z,97533.47
2022-10-13T01:13:53.148Z,97509.00
2022-10-13T01:18:06.546Z,97505.31
2022-10-13T01:22:23.638Z,97512.28
2022-10-13T01:27:04.072Z,97512.31
2022-10-13T01:31:16.372Z,97514.84
2022-10-13T01:35:23.609Z,97514.66
2022-10-13T01:39:40.989Z,97515.28
2022-10-13T01:43:48.928Z,97515.25
2022-10-13T01:47:55.223Z,97490.38
2022-10-13T01:51:57.799Z,97515.16
2022-10-13T01:56:00.793Z,97518.41
2022-10-13T02:00:04.019Z,97499.97
2022-10-13T02:04:32.013Z,97507.16
2022-10-13T02:08:43.079Z,97487.88
2022-10-13T02:12:52.481Z,97500.75
2022-10-13T02:16:56.005Z,97494.09
2022-10-13T02:20:59.464Z,97471.31
2022-10-13T02:24:59.977Z,97492.22
2022-10-13T02:29:00.756Z,97483.91
2022-10-13T02:33:00.896Z,97480.41
2022-10-13T02:37:06.745Z,97472.28
2022-10-13T02:41:06.971Z,97462.03
2022-10-13T02:45:08.877Z,97467.91
2022-10-13T02:49:09.034Z,97463.59
2022-10-13T02:53:11.836Z,97452.38
2022-10-13T02:57:11.973Z,97453.50
2022-10-13T03:01:15.069Z,97459.41
2022-10-13T03:05:15.298Z,97467.44
2022-10-13T03:09:18.158Z,97470.16
2022-10-13T03:13:18.343Z,97473.41
2022-10-13T03:17:18.666Z,97470.22
2022-10-13T03:21:18.825Z,97475.66
2022-10-13T03:25:21.575Z,97474.59
2022-10-13T03:29:25.456Z,97470.81
2022-10-13T03:33:25.545Z,97478.38
2022-10-13T03:37:33.107Z,97463.06
2022-10-13T03:41:36.117Z,97481.00
2022-10-13T03:45:36.229Z,97469.16
2022-10-13T03:49:36.800Z,97463.53
2022-10-13T03:53:37.569Z,97476.66
2022-10-13T03:57:40.354Z,97468.63
2022-10-13T04:01:40.661Z,97472.13
2022-10-13T04:05:40.889Z,97464.88
2022-10-13T04:09:41.100Z,97447.41
2022-10-13T04:13:45.417Z,97473.25
2022-10-13T04:17:45.709Z,97469.22
2022-10-13T04:21:46.696Z,97478.38
2022-10-13T04:25:46.927Z,97464.69
2022-10-13T04:29:49.928Z,97466.81
2022-10-13T04:33:50.358Z,97467.59
2022-10-13T04:37:50.544Z,97463.34
2022-10-13T04:41:50.801Z,97455.81
2022-10-13T04:45:53.547Z,97445.09
2022-10-13T04:49:53.660Z,97403.44
2022-10-13T04:53:58.585Z,97438.66
2022-10-13T04:57:58.758Z,97438.59
2022-10-13T05:02:03.335Z,97420.34
2022-10-13T05:06:04.294Z,97421.94
2022-10-13T05:10:04.542Z,97422.47
2022-10-13T05:14:05.025Z,97416.56
2022-10-13T05:18:07.853Z,97421.13
2022-10-13T05:22:08.034Z,97407.44
2022-10-13T05:26:11.457Z,97425.47
2022-10-13T05:30:13.909Z,97419.06
2022-10-13T05:34:16.797Z,97424.13
2022-10-13T05:38:16.921Z,97372.56
2022-10-13T05:42:17.369Z,97415.56
2022-10-13T05:46:18.526Z,97428.16
2022-10-13T05:50:21.368Z,97419.84
2022-10-13T05:54:26.724Z,97420.34
2022-10-13T05:58:27.733Z,97434.81
2022-10-13T06:02:37.850Z,97423.56
2022-10-13T06:06:40.925Z,97429.97
2022-10-13T06:17:17.118Z,97406.91
2022-10-13T06:21:18.273Z,97395.16
2022-10-13T06:25:21.054Z,97423.03
2022-10-13T06:29:21.230Z,97417.84
2022-10-13T06:33:21.325Z,97415.09
2022-10-13T06:37:26.952Z,97420.59
2022-10-13T06:41:30.170Z,97422.56
2022-10-13T06:45:30.376Z,97416.59
2022-10-13T06:49:30.537Z,97428.94
2022-10-13T06:53:30.990Z,97427.69
2022-10-13T06:57:33.763Z,97429.91
2022-10-13T07:01:41.593Z,97426.19
2022-10-13T07:05:45.640Z,97428.47
2022-10-13T07:09:45.911Z,97421.84
2022-10-13T07:13:51.987Z,97431.25
2022-10-13T07:17:56.172Z,97426.91
2022-10-13T07:21:57.726Z,97315.59
2022-10-13T07:25:59.527Z,97283.53
2022-10-13T07:30:23.315Z,97309.38
2022-10-13T07:34:35.832Z,97410.53
2022-10-13T07:39:05.261Z,97230.56
2022-10-13T07:43:09.631Z,97195.59
2022-10-13T07:47:14.952Z,97289.66
2022-10-13T07:51:22.090Z,97367.81
2022-10-13T07:55:30.178Z,97300.19
2022-10-13T07:59:36.811Z,97370.66
2022-10-13T08:03:50.908Z,97245.75
2022-10-13T08:08:21.190Z,97423.44
2022-10-13T08:13:03.663Z,97323.13
2022-10-13T08:17:05.379Z,97296.31
2022-10-13T08:26:03.794Z,97310.72
2022-10-13T08:30:06.359Z,97402.50
2022-10-13T08:34:07.841Z,97398.44
2022-10-13T08:38:10.911Z,97390.84
2022-10-13T08:42:19.143Z,97376.41
2022-10-13T08:46:28.430Z,97393.03
2022-10-13T08:50:33.225Z,97366.84
2022-10-13T08:54:41.968Z,97291.63
2022-10-13T08:58:48.249Z,97299.06
2022-10-13T09:02:53.717Z,97240.75
2022-10-13T09:07:02.571Z,97311.19
2022-10-13T09:11:19.112Z,97363.59
2022-10-13T09:15:24.426Z,97292.53
2022-10-13T09:19:34.189Z,97233.53
2022-10-13T09:23:38.214Z,97225.56
2022-10-13T09:28:08.096Z,97343.09
2022-10-13T09:32:31.104Z,97350.56
2022-10-13T09:36:32.797Z,97393.22
2022-10-13T09:40:33.666Z,97297.44
2022-10-13T09:44:39.991Z,97185.28
2022-10-13T09:48:50.729Z,97242.78
2022-10-13T09:52:52.290Z,97304.53
2022-10-13T09:57:02.248Z,97376.19
2022-10-13T10:01:09.062Z,97236.22
2022-10-13T10:05:26.514Z,97349.47
2022-10-13T10:09:42.002Z,97196.19
2022-10-13T10:13:43.426Z,97367.09
2022-10-13T10:17:56.704Z,97320.25
2022-10-13T10:22:10.467Z,97268.88
2022-10-13T10:26:24.252Z,97271.13
2022-10-13T10:30:27.819Z,97284.72
2022-10-13T10:34:58.346Z,97309.94
2022-10-13T10:39:11.207Z,97185.81
2022-10-13T10:43:47.139Z,97344.16
2022-10-13T10:47:55.691Z,97345.47
2022-10-13T10:52:02.158Z,97336.13
2022-10-13T10:56:17.022Z,97339.88
2022-10-13T11:00:22.427Z,97336.88
2022-10-13T11:04:41.836Z,97324.81
2022-10-13T11:08:57.057Z,97287.28
2022-10-13T11:13:30.989Z,97214.31
2022-10-13T11:23:18.063Z,97149.69
2022-10-13T11:27:48.926Z,97201.31
2022-10-13T11:32:03.339Z,97297.78
2022-10-13T11:36:59.097Z,97147.50
2022-10-13T11:41:55.673Z,97156.59
2022-10-13T11:46:30.700Z,97233.47
2022-10-13T11:50:50.965Z,97248.22
2022-10-13T11:55:19.433Z,97209.59
2022-10-13T11:59:54.595Z,97181.25
2022-10-13T12:04:15.465Z,97245.81
2022-10-13T12:08:53.225Z,97228.50
2022-10-13T12:13:33.647Z,97093.19
2022-10-13T12:17:52.588Z,97126.66
2022-10-13T12:22:09.564Z,97114.50
2022-10-13T12:26:56.853Z,97148.78
2022-10-13T12:31:11.596Z,97066.69
2022-10-13T12:35:34.950Z,97245.66
2022-10-13T12:40:24.773Z,97117.09
2022-10-13T12:44:34.583Z,97094.09
2022-10-13T12:48:38.497Z,97164.09
2022-10-13T12:52:40.909Z,97108.78
2022-10-13T12:56:46.257Z,97242.25
2022-10-13T13:00:46.466Z,97231.44
2022-10-13T13:04:47.298Z,97234.75
2022-10-13T13:08:47.494Z,97229.66
2022-10-13T13:12:53.162Z,97208.94
2022-10-13T13:17:07.642Z,97228.66
2022-10-13T13:21:09.839Z,97217.44
2022-10-13T13:25:14.113Z,97194.84
2022-10-13T13:29:17.116Z,97198.69
2022-10-13T13:33:17.320Z,97192.81
2022-10-13T13:37:27.441Z,97215.66
2022-10-13T13:41:31.075Z,97209.94
2022-10-13T13:45:37.439Z,97185.22
2022-10-13T13:49:40.306Z,97199.66
2022-10-13T13:53:40.692Z,97147.63
2022-10-13T13:57:46.721Z,97199.44
2022-10-13T14:01:52.523Z,97202.53
2022-10-13T14:05:58.443Z,97185.69
2022-10-13T14:10:01.960Z,97166.38
2022-10-13T14:14:08.935Z,97172.91
2022-10-13T14:18:13.503Z,97142.59
2022-10-13T14:22:13.592Z,97196.56
2022-10-13T14:26:13.798Z,97200.78
2022-10-13T14:30:16.283Z,97194.44
2022-10-13T14:34:19.101Z,97190.88
2022-10-13T14:38:19.233Z,97185.81
2022-10-13T14:42:21.343Z,97185.31
2022-10-13T14:46:21.618Z,97186.63
2022-10-13T14:50:24.433Z,97187.59
2022-10-13T14:54:29.244Z,97182.84
2022-10-13T14:58:29.382Z,97177.84
2022-10-13T15:02:29.792Z,97170.91
2022-10-13T15:06:32.752Z,97169.91
2022-10-13T15:10:33.602Z,97173.72
2022-10-13T15:14:34.485Z,97147.28
2022-10-13T15:18:36.184Z,97178.56
2022-10-13T15:22:39.055Z,97171.13
2022-10-13T15:26:42.462Z,97179.44
2022-10-13T15:30:42.770Z,97156.47
2022-10-13T15:34:43.254Z,97160.47
2022-10-13T15:38:46.153Z,97176.13
2022-10-13T15:42:46.241Z,97185.72
2022-10-13T15:47:06.693Z,97174.22
2022-10-13T15:51:17.109Z,97175.72
2022-10-13T15:55:20.833Z,97163.09
2022-10-13T15:59:21.170Z,97164.88
2022-10-13T16:03:21.914Z,97182.47
2022-10-13T16:07:22.755Z,97176.84
2022-10-13T16:11:27.683Z,97177.03
2022-10-13T16:15:29.218Z,97185.13
2022-10-13T16:19:29.518Z,97182.25
2022-10-13T16:23:29.807Z,97180.56
2022-10-13T16:27:32.651Z,97174.81
2022-10-13T16:31:33.319Z,97192.75
2022-10-13T16:35:34.373Z,97161.78
2022-10-13T16:39:36.533Z,97172.94
2022-10-13T16:43:43.209Z,97179.47
2022-10-13T16:47:43.307Z,97168.63
2022-10-13T16:51:43.594Z,97178.50
2022-10-13T16:55:43.820Z,97128.31
2022-10-13T16:59:48.461Z,97139.59
2022-10-13T17:03:50.356Z,97173.19
2022-10-13T17:07:50.495Z,97126.44
2022-10-13T17:11:50.775Z,97184.28
2022-10-13T17:15:59.246Z,97179.06
2022-10-13T17:19:59.502Z,97164.72
2022-10-13T17:23:59.781Z,97184.03
2022-10-13T17:27:59.940Z,97151.38
2022-10-13T17:32:02.778Z,97181.84
2022-10-13T17:36:04.605Z,97172.88
2022-10-13T17:40:04.877Z,97166.63
2022-10-13T17:44:05.440Z,97164.31
2022-10-13T17:48:08.522Z,97181.91
2022-10-13T17:52:09.279Z,97182.28
2022-10-13T17:56:13.529Z,97185.25
2022-10-13T18:00:16.457Z,97157.78
2022-10-13T18:04:22.455Z,97161.75
2022-10-13T18:08:22.792Z,97177.22
2022-10-13T18:12:23.496Z,97165.44
2022-10-13T18:16:26.394Z,97153.88
2022-10-13T18:20:29.124Z,97142.91
2022-10-13T18:24:29.287Z,97170.41
2022-10-13T18:28:33.388Z,97168.13
2022-10-13T18:32:33.829Z,97165.13
2022-10-13T18:36:39.032Z,97166.09
2022-10-13T18:40:41.637Z,97175.81
2022-10-13T18:44:41.821Z,97158.47
2022-10-13T18:48:42.294Z,97155.06
2022-10-13T18:52:45.067Z,97155.53
2022-10-13T18:56:45.379Z,97159.19
2022-10-13T19:00:45.635Z,97146.81
2022-10-13T19:04:45.782Z,97150.16
2022-10-13T19:08:49.736Z,97141.66
2022-10-13T19:12:50.082Z,97134.03
2022-10-13T19:16:55.235Z,97148.25
2022-10-13T19:21:01.612Z,97149.91
2022-10-13T19:25:04.457Z,97135.31
2022-10-13T19:29:08.748Z,97146.53
2022-10-13T19:33:11.324Z,97140.50
2022-10-13T19:37:20.467Z,97135.44
2022-10-13T19:41:23.984Z,97135.44
2022-10-13T19:45:24.198Z,97134.28
2022-10-13T19:49:27.446Z,97116.13
2022-10-13T19:53:29.701Z,97105.34
2022-10-13T19:57:32.489Z,97129.97
2022-10-13T20:01:32.957Z,97117.13
2022-10-13T20:05:33.715Z,97125.72
2022-10-13T20:09:33.923Z,97118.25
2022-10-13T20:13:36.817Z,97122.50
2022-10-13T20:17:37.036Z,97110.09
2022-10-13T20:21:37.333Z,97121.59
2022-10-13T20:25:40.008Z,97121.31
2022-10-13T20:29:42.883Z,97120.72
2022-10-13T20:33:43.863Z,97114.09
2022-10-13T20:37:44.033Z,97114.34
2022-10-13T20:41:44.319Z,97110.84
2022-10-13T20:45:48.955Z,97124.53
2022-10-13T20:49:49.072Z,97121.09
2022-10-13T20:53:51.227Z,97118.44
2022-10-13T20:57:54.299Z,97107.22
2022-10-13T21:01:57.118Z,97118.78
2022-10-13T21:05:59.180Z,97104.72
2022-10-13T21:09:59.285Z,97083.59
2022-10-13T21:14:00.177Z,97098.34
2022-10-13T21:18:02.971Z,97088.69
2022-10-13T21:22:03.060Z,97091.56
2022-10-13T21:26:05.463Z,97108.41
2022-10-13T21:30:06.294Z,97108.63
2022-10-13T21:34:09.099Z,97119.91
2022-10-13T21:38:09.218Z,97115.72
2022-10-13T21:42:10.427Z,97122.72
2022-10-13T21:46:15.840Z,97124.38
2022-10-13T21:50:18.849Z,97112.31
2022-10-13T21:54:19.584Z,97132.13
2022-10-13T21:58:19.731Z,97127.28
2022-10-13T22:02:19.948Z,97121.06
2022-10-13T22:06:23.426Z,97119.22
2022-10-13T22:10:23.631Z,97130.47
2022-10-13T22:14:25.175Z,97136.97
2022-10-13T22:18:28.290Z,97135.59
2022-10-13T22:22:31.251Z,97080.72
2022-10-13T22:26:34.640Z,97135.28
2022-10-13T22:30:34.804Z,97118.59
2022-10-13T22:34:37.048Z,97129.31
2022-10-13T22:38:40.033Z,97131.50
2022-10-13T22:42:40.172Z,97126.13
2022-10-13T22:46:42.549Z,97116.47
2022-10-13T22:50:46.643Z,97072.09
2022-10-13T22:54:49.433Z,97123.50
2022-10-13T22:58:53.386Z,97127.22
2022-10-13T23:02:53.620Z,97118.00
2022-10-13T23:06:53.814Z,97115.31
2022-10-13T23:10:57.409Z,97113.63
2022-10-13T23:14:57.607Z,97110.44
2022-10-13T23:18:58.429Z,97092.81
2022-10-13T23:22:58.526Z,97117.38
2022-10-13T23:27:01.467Z,97103.44
2022-10-13T23:31:03.461Z,97114.19
2022-10-13T23:35:03.705Z,97108.31
2022-10-13T23:39:10.275Z,97109.44
2022-10-13T23:43:13.141Z,97117.72
2022-10-13T23:47:14.849Z,97112.03
2022-10-13T23:51:19.328Z,97120.63
2022-10-13T23:55:19.552Z,97116.34
2022-10-13T23:59:22.245Z,97097.06
